Time;durP1;ratioP1;P1;durP2;ratioP2;P2;SDS_P1;SDS_P2;PMS_P1;PMS_P2;Temp;Humidity;BMP_temperature;BMP_pressure;BME280_temperature;BME280_humidity;BME280_pressure;Samples;Min_cycle;Max_cycle;Signal;HPM_P1;HPM_P2
2022/05/20 00:02:07;;;;;;;24.93;22.50;;;20.40;99.90;;;;;;5053120;28;20424;-65
2022/05/20 00:04:33;;;;;;;24.20;21.90;;;20.30;99.90;;;;;;5054663;28;20183;-65
2022/05/20 00:06:58;;;;;;;23.73;21.27;;;20.30;99.90;;;;;;5053626;28;20228;-65
2022/05/20 00:09:24;;;;;;;25.50;23.00;;;20.30;99.90;;;;;;5053544;28;20211;-65
2022/05/20 00:11:50;;;;;;;28.77;26.27;;;20.30;99.90;;;;;;5054535;28;20530;-65
2022/05/20 00:14:16;;;;;;;30.13;26.97;;;20.30;99.90;;;;;;5053136;28;20182;-65
2022/05/20 00:16:41;;;;;;;27.63;24.93;;;20.30;99.90;;;;;;5054342;28;20261;-65
2022/05/20 00:19:08;;;;;;;31.50;28.37;;;20.30;99.90;;;;;;5053798;28;20434;-65
2022/05/20 00:21:34;;;;;;;30.37;27.17;;;20.30;99.90;;;;;;5054297;28;20546;-65
2022/05/20 00:24:00;;;;;;;30.03;27.00;;;20.20;99.90;;;;;;5054225;28;20455;-65
2022/05/20 00:26:26;;;;;;;26.63;23.83;;;20.30;99.90;;;;;;5052847;28;20881;-65
2022/05/20 00:28:53;;;;;;;31.53;28.57;;;20.20;99.90;;;;;;5053217;28;21013;-65
2022/05/20 00:31:21;;;;;;;29.80;26.73;;;20.20;99.90;;;;;;5052942;28;20200;-65
2022/05/20 00:33:47;;;;;;;29.73;26.67;;;20.20;99.90;;;;;;5054350;28;20424;-65
2022/05/20 00:36:13;;;;;;;31.07;28.07;;;20.20;99.90;;;;;;5053099;28;20419;-65
2022/05/20 00:38:39;;;;;;;33.23;28.20;;;20.30;99.90;;;;;;5053389;28;20189;-65
2022/05/20 00:41:06;;;;;;;32.07;28.77;;;20.20;99.90;;;;;;5053156;28;20614;-65
2022/05/20 00:43:42;;;;;;;31.30;27.90;;;20.10;99.90;;;;;;5053821;28;20415;-65
2022/05/20 00:46:12;;;;;;;31.27;28.03;;;20.10;99.90;;;;;;5052737;28;20439;-65
2022/05/20 00:48:39;;;;;;;27.80;25.00;;;20.10;99.90;;;;;;5053851;28;20820;-65
2022/05/20 00:51:45;;;;;;;28.30;25.30;;;20.10;99.90;;;;;;5053138;28;20431;-66
2022/05/20 00:54:18;;;;;;;30.20;27.00;;;20.10;99.90;;;;;;5046703;28;20429;-65
2022/05/20 00:56:49;;;;;;;28.27;25.40;;;20.10;99.90;;;;;;5053749;28;20409;-65
2022/05/20 00:59:25;;;;;;;28.30;25.57;;;20.00;99.90;;;;;;5052225;28;20400;-65
2022/05/20 01:01:54;;;;;;;26.30;23.73;;;20.00;99.90;;;;;;5053802;28;20408;-65
2022/05/20 01:04:21;;;;;;;29.70;24.87;;;20.00;99.90;;;;;;5052896;28;20408;-65
2022/05/20 01:06:47;;;;;;;27.67;23.53;;;20.00;99.90;;;;;;5052894;28;20432;-65
2022/05/20 01:09:12;;;;;;;26.70;23.93;;;20.00;99.90;;;;;;5052670;28;20478;-65
2022/05/20 01:11:39;;;;;;;28.70;25.70;;;20.00;99.90;;;;;;5053353;28;20425;-65
2022/05/20 01:14:07;;;;;;;26.47;23.53;;;20.00;99.90;;;;;;5051932;28;20188;-70
2022/05/20 01:16:33;;;;;;;31.23;27.83;;;20.00;99.90;;;;;;5052512;28;21146;-65
2022/05/20 01:19:00;;;;;;;30.20;27.37;;;20.00;99.90;;;;;;5052959;28;20459;-65
2022/05/20 01:21:26;;;;;;;28.73;25.73;;;20.00;99.90;;;;;;5051490;28;20972;-65
2022/05/20 01:23:59;;;;;;;31.10;27.83;;;20.00;99.90;;;;;;5053351;28;20440;-65
2022/05/20 01:26:25;;;;;;;29.30;26.30;;;20.00;99.90;;;;;;5052554;28;20798;-65
2022/05/20 01:28:51;;;;;;;31.67;28.50;;;20.00;99.90;;;;;;5052312;28;20539;-65
2022/05/20 01:31:16;;;;;;;30.30;26.93;;;20.00;99.90;;;;;;5052612;28;20264;-65
2022/05/20 01:33:50;;;;;;;30.77;27.63;;;20.00;99.90;;;;;;5053070;28;20264;-65
2022/05/20 01:36:19;;;;;;;31.07;27.87;;;20.00;99.90;;;;;;5052313;28;20165;-65
2022/05/20 01:38:45;;;;;;;29.50;25.57;;;20.00;99.90;;;;;;5052070;28;20482;-65
2022/05/20 01:41:26;;;;;;;32.23;28.93;;;19.90;99.90;;;;;;5052231;28;20499;-66
2022/05/20 01:44:18;;;;;;;28.23;25.23;;;19.90;99.90;;;;;;5052933;28;20536;-65
2022/05/20 01:46:46;;;;;;;29.13;24.80;;;19.90;99.90;;;;;;5032861;28;20498;-65
2022/05/20 01:49:39;;;;;;;27.77;24.87;;;19.90;99.90;;;;;;5031920;28;20666;-65
2022/05/20 01:52:27;;;;;;;30.03;24.67;;;19.80;99.90;;;;;;5043790;28;20435;-65
2022/05/20 01:55:12;;;;;;;27.13;23.83;;;19.80;99.90;;;;;;5052554;28;20745;-65
2022/05/20 01:57:53;;;;;;;26.63;23.83;;;19.80;99.90;;;;;;5052435;28;20412;-65
2022/05/20 02:00:26;;;;;;;29.03;26.13;;;19.80;99.90;;;;;;5051818;28;20392;-65
2022/05/20 02:02:54;;;;;;;27.30;23.47;;;19.80;99.90;;;;;;5052178;28;20735;-65
2022/05/20 02:05:30;;;;;;;26.17;23.43;;;19.80;99.90;;;;;;5051600;28;20416;-65
2022/05/20 02:08:05;;;;;;;25.77;21.87;;;19.80;99.90;;;;;;5050228;28;20874;-65
2022/05/20 02:10:56;;;;;;;29.20;26.30;;;19.80;99.90;;;;;;5051363;28;20553;-65
2022/05/20 02:13:27;;;;;;;27.30;24.40;;;19.80;99.90;;;;;;5051082;28;20970;-65
2022/05/20 02:16:01;;;;;;;26.90;24.20;;;19.80;99.90;;;;;;5052293;28;20397;-65
2022/05/20 02:18:36;;;;;;;25.63;23.03;;;19.80;99.90;;;;;;5051312;28;20924;-65
2022/05/20 02:21:10;;;;;;;27.17;23.27;;;19.80;99.90;;;;;;5052040;28;20494;-65
2022/05/20 02:23:41;;;;;;;27.90;23.50;;;19.70;99.90;;;;;;5051400;28;20392;-65
2022/05/20 02:26:12;;;;;;;25.53;22.83;;;19.80;99.90;;;;;;5051026;28;20789;-65
2022/05/20 02:28:44;;;;;;;27.47;24.27;;;19.70;99.90;;;;;;5051931;28;20451;-65
2022/05/20 02:31:15;;;;;;;27.20;24.33;;;19.70;99.90;;;;;;5050995;28;20467;-69
2022/05/20 02:33:41;;;;;;;30.77;27.43;;;19.70;99.90;;;;;;5050491;28;20405;-65
2022/05/20 02:36:28;;;;;;;29.47;24.50;;;19.70;99.90;;;;;;5051849;28;20423;-65
2022/05/20 02:38:54;;;;;;;28.70;25.90;;;19.70;99.90;;;;;;5051817;28;20408;-65
2022/05/20 02:41:19;;;;;;;30.80;26.87;;;19.70;99.90;;;;;;5050407;28;20475;-65
2022/05/20 02:43:45;;;;;;;26.43;23.37;;;19.70;99.90;;;;;;5051817;28;20447;-65
2022/05/20 02:46:12;;;;;;;27.97;25.17;;;19.70;99.90;;;;;;5050812;28;20177;-70
2022/05/20 02:48:38;;;;;;;28.57;25.47;;;19.70;99.90;;;;;;5051420;28;20256;-65
2022/05/20 02:51:04;;;;;;;30.30;27.30;;;19.70;99.90;;;;;;5052496;28;20424;-65
2022/05/20 02:53:30;;;;;;;28.33;25.43;;;19.60;99.90;;;;;;5054128;28;20431;-65
2022/05/20 02:55:56;;;;;;;29.43;26.43;;;19.60;99.90;;;;;;5055045;28;20190;-65
2022/05/20 03:04:11;;;;;;;27.23;22.97;;;19.50;99.90;;;;;;5035194;28;20920;-65
2022/05/20 03:06:46;;;;;;;29.37;26.30;;;19.50;99.90;;;;;;5034609;28;20400;-65
2022/05/20 03:09:14;;;;;;;27.47;24.50;;;19.50;99.90;;;;;;5034705;28;20499;-69
2022/05/20 03:11:40;;;;;;;28.60;24.80;;;19.40;99.90;;;;;;5035346;28;20413;-65
2022/05/20 03:14:08;;;;;;;28.37;24.40;;;19.50;99.90;;;;;;5033802;28;20759;-65
2022/05/20 03:16:34;;;;;;;29.77;25.57;;;19.40;99.90;;;;;;5048810;28;20603;-65
2022/05/20 03:19:00;;;;;;;28.40;25.27;;;19.50;99.90;;;;;;5053823;28;20908;-65
2022/05/20 03:21:26;;;;;;;30.00;26.60;;;19.40;99.90;;;;;;5054145;28;20456;-65
2022/05/20 03:23:52;;;;;;;27.50;24.70;;;19.40;99.90;;;;;;5055042;28;20589;-65
2022/05/20 03:26:18;;;;;;;27.67;24.87;;;19.50;99.90;;;;;;5052657;28;20269;-66
2022/05/20 03:28:45;;;;;;;28.03;25.17;;;19.50;99.90;;;;;;5054869;28;20459;-65
2022/05/20 03:31:12;;;;;;;27.27;24.37;;;19.40;99.90;;;;;;5054599;28;20939;-65
2022/05/20 03:33:39;;;;;;;30.27;26.93;;;19.40;99.90;;;;;;5052794;28;20420;-65
2022/05/20 03:36:05;;;;;;;30.40;27.10;;;19.40;99.90;;;;;;5054686;28;20420;-65
2022/05/20 03:38:31;;;;;;;30.20;25.90;;;19.40;99.90;;;;;;5051095;28;20528;-65
2022/05/20 03:40:57;;;;;;;30.27;26.90;;;19.40;99.90;;;;;;5054371;28;20495;-65
2022/05/20 03:43:23;;;;;;;29.60;26.40;;;19.30;99.90;;;;;;5053579;28;20181;-66
2022/05/20 03:45:51;;;;;;;28.60;25.77;;;19.30;99.90;;;;;;5055824;28;20186;-66
2022/05/20 03:48:17;;;;;;;26.57;23.97;;;19.30;99.90;;;;;;5053697;28;20507;-68
2022/05/20 03:50:43;;;;;;;27.30;24.60;;;19.40;99.90;;;;;;5052249;28;20522;-65
2022/05/20 03:53:08;;;;;;;27.57;24.77;;;19.30;99.90;;;;;;5053168;28;20247;-66
2022/05/20 03:55:34;;;;;;;26.97;24.23;;;19.30;99.90;;;;;;5053362;28;20419;-66
2022/05/20 03:58:00;;;;;;;28.27;25.17;;;19.30;99.90;;;;;;5054405;28;20186;-66
2022/05/20 04:00:26;;;;;;;31.27;25.83;;;19.30;99.90;;;;;;5052264;28;20240;-66
2022/05/20 04:02:51;;;;;;;27.83;23.90;;;19.30;99.90;;;;;;5053550;28;20182;-66
2022/05/20 04:05:17;;;;;;;27.07;24.17;;;19.30;99.90;;;;;;5054021;28;20190;-68
2022/05/20 04:07:43;;;;;;;27.80;24.77;;;19.20;99.90;;;;;;5051469;28;20178;-67
2022/05/20 04:10:10;;;;;;;27.23;24.40;;;19.20;99.90;;;;;;5054141;28;20174;-66
2022/05/20 04:12:41;;;;;;;29.97;25.90;;;19.30;99.90;;;;;;5053275;28;20174;-66
2022/05/20 04:15:10;;;;;;;28.50;25.60;;;19.30;99.90;;;;;;5052735;28;20428;-66
2022/05/20 04:17:36;;;;;;;24.97;22.43;;;19.30;99.90;;;;;;5052835;28;20416;-66
2022/05/20 04:20:03;;;;;;;29.20;26.10;;;19.30;99.90;;;;;;5053550;28;20427;-66
2022/05/20 04:22:36;;;;;;;28.13;25.27;;;19.30;99.90;;;;;;5052519;28;20447;-66
2022/05/20 04:25:03;;;;;;;28.40;25.50;;;19.30;99.90;;;;;;5053019;28;20463;-66
2022/05/20 04:27:29;;;;;;;27.47;24.60;;;19.30;99.90;;;;;;5053053;28;20495;-65
2022/05/20 04:29:56;;;;;;;27.87;25.07;;;19.30;99.90;;;;;;5053857;28;20547;-65
2022/05/20 04:32:22;;;;;;;29.60;26.23;;;19.30;99.90;;;;;;5052749;28;20254;-66
2022/05/20 04:34:48;;;;;;;27.83;25.07;;;19.30;99.90;;;;;;5052375;28;20511;-65
2022/05/20 04:37:14;;;;;;;31.77;26.13;;;19.40;99.90;;;;;;5055969;28;20424;-66
2022/05/20 04:39:40;;;;;;;32.27;28.77;;;19.40;99.90;;;;;;5052352;28;20961;-66
2022/05/20 04:47:39;;;;;;;28.83;25.70;;;19.40;99.90;;;;;;5068507;28;20464;-66
2022/05/20 04:50:05;;;;;;;28.63;25.73;;;19.40;99.90;;;;;;5072086;28;20435;-66
2022/05/20 04:52:31;;;;;;;32.83;27.43;;;19.40;99.90;;;;;;5051092;28;20226;-66
2022/05/20 04:54:57;;;;;;;29.50;26.30;;;19.50;99.90;;;;;;5052188;28;20468;-66
2022/05/20 04:57:32;;;;;;;29.83;26.73;;;19.50;99.90;;;;;;5052121;28;20185;-66
2022/05/20 05:00:23;;;;;;;28.43;25.40;;;19.50;99.90;;;;;;5051299;28;20246;-66
2022/05/20 05:02:49;;;;;;;31.30;27.90;;;19.60;99.90;;;;;;5042664;28;20821;-66
2022/05/20 05:05:18;;;;;;;32.03;27.03;;;19.60;99.90;;;;;;5051267;28;20423;-66
2022/05/20 05:07:47;;;;;;;30.83;26.87;;;19.60;99.90;;;;;;5052550;28;20510;-66
2022/05/20 05:10:17;;;;;;;32.67;28.83;;;19.50;99.90;;;;;;5051517;28;20923;-66
2022/05/20 05:12:43;;;;;;;30.73;27.20;;;19.50;99.90;;;;;;5051423;28;20424;-66
2022/05/20 05:15:11;;;;;;;27.90;24.87;;;19.50;99.90;;;;;;5051223;28;20499;-66
2022/05/20 05:20:24;;;;;;;27.87;24.77;;;19.60;99.90;;;;;;5050920;28;20973;-68
2022/05/20 05:22:51;;;;;;;28.10;24.30;;;19.60;99.90;;;;;;5050658;28;20492;-66
2022/05/20 05:25:18;;;;;;;24.10;20.53;;;19.70;99.90;;;;;;5051028;28;20438;-66
2022/05/20 05:27:44;;;;;;;29.93;23.67;;;19.80;99.90;;;;;;5051646;28;20435;-66
2022/05/20 05:30:12;;;;;;;27.80;24.00;;;19.80;99.90;;;;;;5050244;28;20428;-66
2022/05/20 05:32:39;;;;;;;28.53;25.37;;;19.90;99.90;;;;;;5052024;28;20174;-66
2022/05/20 05:35:07;;;;;;;30.70;25.30;;;20.00;99.90;;;;;;5051904;28;20478;-66
2022/05/20 05:37:37;;;;;;;27.70;24.73;;;20.00;99.90;;;;;;5052241;28;20495;-66
2022/05/20 05:40:06;;;;;;;29.50;26.37;;;20.00;99.90;;;;;;5051951;28;20486;-66
2022/05/20 05:42:32;;;;;;;27.63;24.80;;;20.00;99.90;;;;;;5052219;28;20412;-66
2022/05/20 05:44:58;;;;;;;26.87;24.07;;;19.70;99.90;;;;;;5052522;28;20412;-66
2022/05/20 05:47:24;;;;;;;27.47;24.30;;;19.40;99.90;;;;;;5052093;28;20257;-66
2022/05/20 05:49:50;;;;;;;27.00;24.20;;;19.50;99.90;;;;;;5050304;28;20559;-66
2022/05/20 05:52:15;;;;;;;28.20;25.17;;;19.30;99.90;;;;;;5050988;28;20201;-65
2022/05/20 05:54:41;;;;;;;26.30;23.50;;;19.30;99.90;;;;;;5050825;28;20234;-65
2022/05/20 05:57:07;;;;;;;25.77;23.10;;;19.30;99.90;;;;;;5052558;28;20165;-66
2022/05/20 05:59:33;;;;;;;25.23;22.60;;;19.30;99.90;;;;;;5051746;28;20176;-66
2022/05/20 06:02:00;;;;;;;22.80;20.40;;;19.10;99.90;;;;;;5059102;28;20211;-66
2022/05/20 06:04:27;;;;;;;22.60;20.33;;;19.00;99.90;;;;;;5055783;28;20440;-66
2022/05/20 06:06:53;;;;;;;21.63;18.03;;;19.00;99.90;;;;;;5049438;28;20420;-66
2022/05/20 06:09:19;;;;;;;20.10;18.00;;;19.00;99.90;;;;;;5050136;28;20516;-67
2022/05/20 06:11:45;;;;;;;17.57;15.90;;;19.20;99.90;;;;;;5049253;28;20466;-68
2022/05/20 06:14:10;;;;;;;17.40;14.50;;;19.40;99.90;;;;;;5042647;28;20485;-67
2022/05/20 06:16:38;;;;;;;17.70;16.00;;;19.80;99.90;;;;;;5051762;28;20173;-68
2022/05/20 06:19:04;;;;;;;18.13;16.43;;;20.10;99.90;;;;;;5051579;28;20243;-67
2022/05/20 06:21:30;;;;;;;16.00;14.47;;;20.30;99.90;;;;;;5050298;28;20492;-67
2022/05/20 06:23:56;;;;;;;16.00;14.30;;;20.60;99.90;;;;;;5052116;28;20483;-68
2022/05/20 06:26:21;;;;;;;13.50;12.27;;;20.80;99.90;;;;;;5053816;28;20174;-68
2022/05/20 06:28:47;;;;;;;15.43;13.97;;;21.00;99.90;;;;;;5059062;28;20212;-67
2022/05/20 06:31:13;;;;;;;14.30;13.00;;;21.10;99.90;;;;;;5056457;28;20640;-68
2022/05/20 06:33:40;;;;;;;14.57;13.27;;;21.20;99.90;;;;;;5055848;28;20423;-68
2022/05/20 06:41:34;;;;;;;13.67;12.47;;;21.50;99.90;;;;;;5055258;28;20415;-68
2022/05/20 06:44:01;;;;;;;13.27;12.17;;;21.60;99.90;;;;;;5058354;28;20895;-68
2022/05/20 06:46:27;;;;;;;11.83;10.73;;;21.70;99.90;;;;;;5053355;28;20581;-68
2022/05/20 06:48:55;;;;;;;12.33;11.13;;;21.80;99.90;;;;;;5054406;28;20550;-68
2022/05/20 06:51:30;;;;;;;10.63;9.70;;;21.60;97.20;;;;;;5055021;28;20190;-68
2022/05/20 06:53:59;;;;;;;10.33;9.53;;;21.60;99.90;;;;;;5055043;28;20425;-68
2022/05/20 06:56:28;;;;;;;11.00;10.00;;;21.50;97.90;;;;;;5053177;28;20511;-71
2022/05/20 06:58:58;;;;;;;12.70;11.60;;;21.60;99.90;;;;;;5054930;28;20440;-68
2022/05/20 07:01:24;;;;;;;11.10;10.30;;;21.80;99.90;;;;;;5054356;28;20427;-67
2022/05/20 07:03:50;;;;;;;10.73;9.90;;;21.90;99.90;;;;;;5055170;28;20412;-67
2022/05/20 07:06:17;;;;;;;11.93;10.83;;;22.00;99.90;;;;;;5055213;28;20166;-68
2022/05/20 07:08:48;;;;;;;12.20;11.13;;;22.00;99.90;;;;;;5050071;28;20932;-68
2022/05/20 07:11:20;;;;;;;12.87;11.53;;;22.10;99.90;;;;;;5054586;28;20424;-68
2022/05/20 07:13:47;;;;;;;12.70;10.90;;;21.70;96.80;;;;;;5052987;28;20897;-68
2022/05/20 07:16:13;;;;;;;11.70;10.50;;;21.60;99.90;;;;;;5055398;28;20415;-68
2022/05/20 07:18:39;;;;;;;13.73;12.50;;;21.70;99.90;;;;;;5055003;28;20424;-68
2022/05/20 07:21:05;;;;;;;14.10;12.90;;;21.90;99.90;;;;;;5053768;28;20308;-67
2022/05/20 07:23:32;;;;;;;17.10;15.40;;;21.80;99.90;;;;;;5051823;28;20822;-68
2022/05/20 07:25:59;;;;;;;16.57;14.53;;;21.80;99.90;;;;;;5052272;28;20494;-67
2022/05/20 07:28:25;;;;;;;15.70;14.10;;;21.80;99.40;;;;;;5051185;28;20484;-67
2022/05/20 07:30:51;;;;;;;18.47;16.67;;;21.60;99.90;;;;;;5044701;28;20416;-67
2022/05/20 07:33:17;;;;;;;16.63;15.00;;;21.70;99.90;;;;;;5053270;28;20432;-67
2022/05/20 07:35:43;;;;;;;18.57;16.77;;;21.70;99.90;;;;;;5053355;28;20404;-67
2022/05/20 07:38:09;;;;;;;19.90;16.20;;;21.70;99.90;;;;;;5050821;28;20185;-67
2022/05/20 07:40:35;;;;;;;17.33;15.50;;;21.70;99.90;;;;;;5051134;28;20425;-67
2022/05/20 07:43:01;;;;;;;17.43;15.63;;;21.80;99.90;;;;;;5052645;28;20514;-67
2022/05/20 07:45:27;;;;;;;19.57;17.57;;;21.70;99.90;;;;;;5050863;28;20546;-67
2022/05/20 07:47:53;;;;;;;18.60;16.70;;;21.70;99.90;;;;;;5042411;28;20489;-67
2022/05/20 07:50:20;;;;;;;19.07;17.03;;;21.80;99.90;;;;;;5052304;28;20444;-67
2022/05/20 07:55:37;;;;;;;16.87;15.10;;;22.00;99.90;;;;;;5071928;28;20392;-67
2022/05/20 07:58:05;;;;;;;19.30;15.20;;;22.00;99.90;;;;;;5052385;28;20510;-67
2022/05/20 08:00:32;;;;;;;18.23;15.70;;;22.20;99.90;;;;;;5038633;28;20931;-67
2022/05/20 08:03:00;;;;;;;16.00;14.40;;;22.20;99.90;;;;;;5058481;28;20752;-67
2022/05/20 08:05:28;;;;;;;16.57;14.87;;;22.30;99.90;;;;;;5050572;28;20420;-67
2022/05/20 08:07:59;;;;;;;17.10;14.73;;;22.40;99.80;;;;;;5050549;28;20519;-67
2022/05/20 08:10:27;;;;;;;17.80;16.00;;;22.50;99.80;;;;;;5033687;28;20484;-67
2022/05/20 08:12:53;;;;;;;16.77;15.07;;;22.50;99.90;;;;;;5047387;28;20460;-67
2022/05/20 08:15:18;;;;;;;17.33;15.63;;;22.40;99.30;;;;;;5052458;28;20438;-67
2022/05/20 08:17:44;;;;;;;16.93;14.87;;;22.50;99.10;;;;;;5052978;28;20404;-67
2022/05/20 08:20:18;;;;;;;15.73;14.23;;;22.60;99.10;;;;;;5010149;28;1122160;-67
2022/05/20 08:22:43;;;;;;;16.40;14.73;;;22.60;98.10;;;;;;5054334;28;20535;-67
2022/05/20 08:25:09;;;;;;;18.17;16.50;;;22.60;98.40;;;;;;5051837;28;20515;-69
2022/05/20 08:27:35;;;;;;;15.97;14.20;;;22.70;98.00;;;;;;5052005;28;20614;-68
2022/05/20 08:30:14;;;;;;;15.73;14.13;;;22.80;98.50;;;;;;5053043;28;20213;-67
2022/05/20 08:32:40;;;;;;;18.20;16.40;;;22.60;97.70;;;;;;5053249;28;20177;-67
2022/05/20 08:35:07;;;;;;;17.43;15.63;;;22.70;98.60;;;;;;5052961;28;20919;-67
2022/05/20 08:37:41;;;;;;;20.20;17.77;;;22.70;99.00;;;;;;5053974;28;20404;-67
2022/05/20 08:40:14;;;;;;;21.00;17.93;;;22.80;99.60;;;;;;5052295;28;20489;-67
2022/05/20 08:42:40;;;;;;;20.77;17.70;;;22.90;99.80;;;;;;5052185;28;20816;-66
2022/05/20 08:45:08;;;;;;;20.43;18.37;;;22.90;99.90;;;;;;5053638;28;20420;-71
2022/05/20 08:47:44;;;;;;;19.73;17.03;;;23.00;99.90;;;;;;5052951;28;20428;-66
2022/05/20 08:50:14;;;;;;;20.13;18.13;;;23.10;99.90;;;;;;5051122;28;20479;-67
2022/05/20 08:52:42;;;;;;;22.53;20.33;;;23.20;99.90;;;;;;5036497;28;20463;-65
2022/05/20 08:55:09;;;;;;;24.73;20.20;;;23.40;99.90;;;;;;5051630;28;20432;-67
2022/05/20 08:57:35;;;;;;;21.97;19.87;;;23.50;99.90;;;;;;5052243;28;20428;-66
2022/05/20 09:00:07;;;;;;;23.97;21.50;;;23.50;99.90;;;;;;5052804;28;20432;-65
2022/05/20 09:02:33;;;;;;;22.33;19.93;;;23.40;99.40;;;;;;5044329;28;20433;-65
2022/05/20 09:04:59;;;;;;;22.70;20.27;;;23.40;99.70;;;;;;5050778;28;20444;-66
2022/05/20 09:07:25;;;;;;;22.80;19.17;;;23.30;99.40;;;;;;5050864;28;20186;-66
2022/05/20 09:09:56;;;;;;;24.07;21.60;;;23.30;99.90;;;;;;5052965;28;20459;-66
2022/05/20 09:12:32;;;;;;;24.33;21.33;;;23.30;99.90;;;;;;5052830;28;20162;-66
2022/05/20 09:18:21;;;;;;;25.73;23.20;;;23.20;99.90;;;;;;5053330;28;20396;-66
2022/05/20 09:20:52;;;;;;;27.00;24.07;;;23.10;99.90;;;;;;5045628;28;20465;-65
2022/05/20 09:23:20;;;;;;;24.37;21.77;;;23.00;99.90;;;;;;5052678;28;20754;-66
2022/05/20 09:26:06;;;;;;;28.17;22.30;;;22.90;99.90;;;;;;5053146;28;20452;-66
2022/05/20 09:28:40;;;;;;;24.20;21.70;;;22.90;99.90;;;;;;5051219;28;20448;-66
2022/05/20 09:31:27;;;;;;;24.47;22.13;;;22.90;99.90;;;;;;5053154;28;20408;-66
2022/05/20 09:34:07;;;;;;;22.90;20.43;;;23.10;99.90;;;;;;5052950;28;20416;-66
2022/05/20 09:36:43;;;;;;;27.47;21.77;;;23.20;99.90;;;;;;5052683;28;20396;-66
2022/05/20 09:39:14;;;;;;;25.77;20.83;;;23.30;99.90;;;;;;5052967;28;20411;-66
2022/05/20 09:42:07;;;;;;;26.07;23.27;;;23.40;99.90;;;;;;5053337;28;20411;-66
2022/05/20 09:44:45;;;;;;;29.50;25.93;;;23.60;99.90;;;;;;5052243;28;20401;-66
2022/05/20 09:47:27;;;;;;;26.77;23.63;;;23.70;99.90;;;;;;5052273;28;20488;-66
2022/05/20 09:50:02;;;;;;;24.53;21.93;;;23.80;99.90;;;;;;5052344;28;20800;-66
2022/05/20 09:52:54;;;;;;;27.07;24.17;;;23.50;99.90;;;;;;5052107;28;20416;-65
2022/05/20 09:55:40;;;;;;;26.80;24.13;;;23.40;99.90;;;;;;5050068;28;20439;-66
2022/05/20 09:58:28;;;;;;;28.77;23.67;;;23.30;99.90;;;;;;5051595;28;20444;-65
2022/05/20 10:01:03;;;;;;;28.10;23.20;;;23.30;99.90;;;;;;5052261;28;20782;-66
2022/05/20 10:03:38;;;;;;;26.13;23.10;;;23.20;99.90;;;;;;5052286;28;20437;-66
2022/05/20 10:06:31;;;;;;;24.70;22.10;;;23.30;99.90;;;;;;5051494;28;20828;-66
2022/05/20 10:09:15;;;;;;;31.57;24.53;;;23.40;99.90;;;;;;5051393;28;20482;-66
2022/05/20 10:11:44;;;;;;;27.43;24.83;;;23.50;99.90;;;;;;5052590;28;20412;-66
2022/05/20 10:14:16;;;;;;;27.43;24.50;;;23.50;99.90;;;;;;5052476;28;20415;-66
2022/05/20 10:16:59;;;;;;;27.33;24.50;;;23.60;99.90;;;;;;5052504;28;20752;-66
2022/05/20 10:19:52;;;;;;;28.83;23.50;;;23.60;99.90;;;;;;5052059;28;20438;-66
2022/05/20 10:22:39;;;;;;;26.03;23.33;;;23.80;99.90;;;;;;5051986;28;20513;-66
2022/05/20 10:25:25;;;;;;;24.83;22.33;;;24.00;99.90;;;;;;5052116;28;20891;-66
2022/05/20 10:32:34;;;;;;;27.77;24.77;;;24.20;99.90;;;;;;5051168;28;20454;-66
2022/05/20 10:33:53;;;;;;;26.73;24.03;;;24.40;99.90;;;;;;5052054;28;20888;-66
2022/05/20 10:36:38;;;;;;;25.00;22.40;;;24.70;99.90;;;;;;5051706;28;20426;-67
2022/05/20 10:39:18;;;;;;;26.27;22.50;;;24.90;99.90;;;;;;5052259;28;20162;-66
2022/05/20 10:41:58;;;;;;;24.33;21.73;;;25.10;99.90;;;;;;5050796;28;20419;-66
2022/05/20 10:51:10;;;;;;;22.60;20.13;;;25.80;99.90;;;;;;5051329;28;20436;-66
2022/05/20 10:53:42;;;;;;;22.30;20.10;;;26.00;99.90;;;;;;5051114;28;20408;-66
2022/05/20 10:56:44;;;;;;;25.80;23.10;;;26.10;99.90;;;;;;5051668;28;20507;-66
2022/05/20 10:59:23;;;;;;;24.90;22.40;;;26.20;98.80;;;;;;5051989;28;20416;-66
2022/05/20 11:02:00;;;;;;;26.50;22.10;;;26.30;98.80;;;;;;5052444;28;20392;-66
2022/05/20 11:04:45;;;;;;;26.00;23.40;;;26.30;97.90;;;;;;5051378;28;20403;-67
2022/05/20 11:07:48;;;;;;;24.03;21.63;;;26.30;98.30;;;;;;5050886;28;20420;-67
2022/05/20 11:10:27;;;;;;;26.30;23.60;;;26.20;98.70;;;;;;5051716;28;20815;-66
2022/05/20 11:13:47;;;;;;;25.80;23.10;;;26.20;98.30;;;;;;5054040;28;20399;-66
2022/05/20 11:16:28;;;;;;;23.07;20.73;;;26.20;98.70;;;;;;5047699;28;20927;-66
2022/05/20 11:19:03;;;;;;;25.07;22.57;;;26.20;99.50;;;;;;5055723;28;20428;-66
2022/05/20 11:21:50;;;;;;;24.80;22.53;;;26.10;99.00;;;;;;5055036;28;20478;-66
2022/05/20 11:24:25;;;;;;;25.77;23.27;;;26.10;98.80;;;;;;5055408;28;20533;-70
2022/05/20 11:26:56;;;;;;;27.13;24.67;;;26.10;99.40;;;;;;5055758;28;20454;-66
2022/05/20 11:29:47;;;;;;;25.53;23.07;;;26.00;99.10;;;;;;5054490;28;20969;-67
2022/05/20 11:32:36;;;;;;;26.97;24.37;;;26.00;99.90;;;;;;5053486;28;20764;-67
2022/05/20 11:35:25;;;;;;;25.83;23.13;;;25.90;99.20;;;;;;5052989;28;20452;-67
2022/05/20 11:37:56;;;;;;;25.00;22.60;;;26.00;99.90;;;;;;5055258;28;20400;-66
2022/05/20 11:40:49;;;;;;;24.10;21.70;;;25.90;99.90;;;;;;5053692;28;20511;-66
2022/05/20 11:43:47;;;;;;;24.07;21.70;;;25.90;99.90;;;;;;5052080;28;20436;-66
2022/05/20 11:46:27;;;;;;;27.97;25.17;;;25.90;99.90;;;;;;5052689;28;20517;-66
2022/05/20 11:49:21;;;;;;;23.27;20.97;;;25.90;99.90;;;;;;5050619;28;20519;-66
2022/05/20 11:52:16;;;;;;;23.77;21.37;;;25.90;99.90;;;;;;5053951;28;20432;-66
2022/05/20 11:54:51;;;;;;;27.53;24.60;;;25.80;99.70;;;;;;5050528;28;20960;-66
2022/05/20 11:57:22;;;;;;;23.37;20.97;;;25.80;99.90;;;;;;5060039;28;20426;-70
2022/05/20 12:00:02;;;;;;;23.63;21.23;;;25.80;99.90;;;;;;5058452;28;20428;-66
2022/05/20 12:02:31;;;;;;;23.87;21.57;;;25.80;99.90;;;;;;5054257;28;20412;-66
2022/05/20 12:04:58;;;;;;;26.37;23.97;;;25.90;99.90;;;;;;5055498;28;20489;-66
2022/05/20 12:07:25;;;;;;;28.57;25.70;;;26.00;99.90;;;;;;5054022;28;20427;-66
2022/05/20 12:09:58;;;;;;;27.20;24.40;;;26.00;99.90;;;;;;5055895;28;20943;-67
2022/05/20 12:12:33;;;;;;;29.27;26.30;;;25.90;99.90;;;;;;5055872;28;20777;-66
2022/05/20 12:15:05;;;;;;;26.87;24.30;;;25.90;99.90;;;;;;5053311;28;20420;-66
2022/05/20 12:17:39;;;;;;;25.43;22.90;;;25.70;99.90;;;;;;5055682;28;20787;-66
2022/05/20 12:26:10;;;;;;;25.73;23.27;;;25.90;99.90;;;;;;5053595;28;20889;-67
2022/05/20 12:28:39;;;;;;;26.03;23.43;;;25.90;99.90;;;;;;5045126;28;20836;-67
2022/05/20 12:31:23;;;;;;;27.17;24.63;;;26.10;99.90;;;;;;5053741;28;20412;-66
2022/05/20 12:34:10;;;;;;;29.20;26.47;;;26.20;99.90;;;;;;5053710;28;20409;-66
2022/05/20 12:36:42;;;;;;;25.40;22.90;;;26.20;99.90;;;;;;5053089;28;20407;-66
2022/05/20 12:39:08;;;;;;;25.13;22.67;;;26.20;99.90;;;;;;5054201;28;20443;-66
2022/05/20 12:41:38;;;;;;;25.60;22.80;;;26.10;99.90;;;;;;5052297;28;20506;-66
2022/05/20 12:44:24;;;;;;;28.37;25.60;;;26.10;99.90;;;;;;5057893;28;20235;-67
2022/05/20 12:47:01;;;;;;;25.80;23.00;;;26.10;99.90;;;;;;5051092;28;20915;-66
2022/05/20 12:49:46;;;;;;;26.33;23.60;;;26.00;99.90;;;;;;5052605;28;20471;-66
2022/05/20 12:52:18;;;;;;;25.57;23.10;;;25.90;99.90;;;;;;5045898;28;20453;-68
2022/05/20 12:54:50;;;;;;;25.73;23.23;;;25.80;99.90;;;;;;5053914;28;20444;-69
2022/05/20 12:57:27;;;;;;;26.10;23.40;;;25.80;99.90;;;;;;5055536;28;20493;-70
2022/05/20 13:00:12;;;;;;;27.57;24.87;;;25.70;99.90;;;;;;5056351;28;20435;-68
2022/05/20 13:02:46;;;;;;;26.90;24.23;;;25.10;99.90;;;;;;5052143;28;20497;-69
2022/05/20 13:05:15;;;;;;;25.67;22.97;;;25.10;99.90;;;;;;5055499;28;20431;-69
2022/05/20 13:07:42;;;;;;;22.90;20.70;;;25.10;99.90;;;;;;5056181;28;20485;-69
2022/05/20 13:10:36;;;;;;;24.80;22.37;;;25.20;99.90;;;;;;5055306;28;20600;-69
2022/05/20 13:13:14;;;;;;;27.67;25.10;;;25.10;99.90;;;;;;5054428;28;20440;-68
2022/05/20 13:15:49;;;;;;;27.00;24.10;;;25.10;99.90;;;;;;5048797;28;20443;-74
2022/05/20 13:18:23;;;;;;;27.07;24.37;;;25.10;99.90;;;;;;5042698;28;20435;-69
2022/05/20 13:20:56;;;;;;;29.07;26.17;;;25.00;99.90;;;;;;5051271;28;20975;-69
2022/05/20 13:23:29;;;;;;;29.73;27.00;;;24.90;99.90;;;;;;5040105;28;20436;-69
2022/05/20 13:25:55;;;;;;;28.33;25.63;;;24.80;99.90;;;;;;5050373;28;20833;-69
2022/05/20 13:28:30;;;;;;;30.87;27.60;;;24.80;99.90;;;;;;5047813;28;20471;-69
2022/05/20 13:31:11;;;;;;;30.60;27.63;;;24.70;99.90;;;;;;5057263;28;20176;-68
2022/05/20 13:33:42;;;;;;;29.83;26.83;;;24.60;99.90;;;;;;5051278;28;20755;-69